Main page
METAR-TAF:

METAR-TAF

Airports :

Dushanbe, Tajikistan

Dushanbe International Airport

latitude: 38-33N, longitude: 068-47E, elevation: 803 m

Current weather observation

The report was made 32 minutes ago, at 14:30 UTC
Wind 8 kt from the East
Temperature 18°C
Humidity 49%
Pressure 1015 hPa
Visibility 10 km or more

METAR: UTDD 291430Z 09004MPS 9999 NSC 18/07 Q1015 R09/D NOSIG RMK QFE693/0924

Time: 20:02 (15:02 UTC)

Forecast

The report was made 3 hours and 2 minutes ago, at 12:00 UTC
Forecast valid from 29 at 13 UTC to 30 at 01 UTC
Wind 10 kt from the East
Visibility: 6000 m
Scattered clouds at a height of 5000 ft, Cumulonimbus.
Broken clouds at a height of 10000 ft
Temporary
from 29 at 13 UTC to 30 at 01 UTC
Wind 17 kt from variable directions with gusts up to 27 kt
Visibility: 1700 m
thunderstorm, rain, mist

TAF: UTDD 291200Z 2913/3001 09005MPS 6000 SCT050CB BKN100 TEMPO 2913/3001 VRB09G14MPS 1700 TSRA BR

Weather observations and forecasts of more than 4000 airports (METAR and TAF reports).

The available stations are represented by yellow and red dots on the map.

Hover mouse over dot to see the name of the station.

Then click to see weather observations and forecasts.

To change the map : click on the green buttons with a black cross to zoom in, on the green button with a dash to zoom out, or on the green arrows for adjacent maps.


METAR-TAF: